createdAt,value
2022-11-06T00:02:47.955Z,13.74
2022-11-06T00:08:12.590Z,13.21
2022-11-06T00:13:37.109Z,11.85
2022-11-06T00:19:05.399Z,12.96
2022-11-06T00:24:31.407Z,13.31
2022-11-06T00:29:58.453Z,13.61
2022-11-06T00:35:23.423Z,13.25
2022-11-06T00:40:45.891Z,11.67
2022-11-06T00:46:15.036Z,11.68
2022-11-06T00:51:43.692Z,13.79
2022-11-06T00:57:10.105Z,13.90
2022-11-06T01:02:57.626Z,12.26
2022-11-06T01:08:27.143Z,12.56
2022-11-06T01:13:55.337Z,13.90
2022-11-06T01:19:36.274Z,13.70
2022-11-06T01:25:22.324Z,11.94
2022-11-06T01:30:44.618Z,12.24
2022-11-06T01:36:10.401Z,14.45
2022-11-06T01:41:41.896Z,13.23
2022-11-06T01:47:18.417Z,11.80
2022-11-06T01:52:41.908Z,12.19
2022-11-06T01:58:08.329Z,14.03
2022-11-06T02:03:43.647Z,13.20
2022-11-06T02:09:15.120Z,11.56
2022-11-06T02:14:51.538Z,11.82
2022-11-06T02:20:26.585Z,13.42
2022-11-06T02:26:06.366Z,13.06
2022-11-06T02:31:35.773Z,11.37
2022-11-06T02:37:12.993Z,11.72
2022-11-06T02:42:42.821Z,14.06
2022-11-06T02:48:09.746Z,12.77
2022-11-06T02:53:56.689Z,10.97
2022-11-06T02:59:35.325Z,11.57
2022-11-06T03:05:14.229Z,13.48
2022-11-06T03:17:32.691Z,10.88
2022-11-06T03:30:40.280Z,13.26
2022-11-06T03:49:11.522Z,12.97
2022-11-06T03:55:08.897Z,11.36
2022-11-06T04:06:47.751Z,12.43
2022-11-06T04:12:32.901Z,10.70
2022-11-06T04:18:11.201Z,11.13
2022-11-06T04:24:00.787Z,12.96
2022-11-06T04:30:00.695Z,11.16
2022-11-06T04:35:59.742Z,9.70
2022-11-06T04:42:11.002Z,10.94
2022-11-06T04:47:44.785Z,12.55
2022-11-06T04:53:09.533Z,11.13
2022-11-06T04:58:32.345Z,9.78
2022-11-06T05:03:57.056Z,10.28
2022-11-06T05:09:23.225Z,11.80
2022-11-06T05:14:49.011Z,10.05
2022-11-06T05:20:11.495Z,10.23
2022-11-06T05:25:38.040Z,11.32
2022-11-06T05:31:00.396Z,9.41
2022-11-06T05:36:23.000Z,9.41
2022-11-06T05:41:46.134Z,11.35
2022-11-06T05:47:10.958Z,11.51
2022-11-06T05:52:35.502Z,9.67
2022-11-06T05:57:59.971Z,9.70
2022-11-06T06:03:23.364Z,11.78
2022-11-06T06:08:51.455Z,10.94
2022-11-06T06:14:21.726Z,9.33
2022-11-06T06:19:44.556Z,9.65
2022-11-06T06:25:22.416Z,11.76
2022-11-06T06:30:45.703Z,10.62
2022-11-06T06:36:12.383Z,9.22
2022-11-06T06:41:42.188Z,10.05
2022-11-06T06:47:26.900Z,11.48
2022-11-06T06:52:55.911Z,9.53
2022-11-06T06:58:21.344Z,9.76
2022-11-06T07:03:44.574Z,12.02
2022-11-06T07:09:08.255Z,10.43
2022-11-06T07:14:36.873Z,10.57
2022-11-06T07:19:59.959Z,12.16
2022-11-06T07:25:22.154Z,10.48
2022-11-06T07:30:44.505Z,10.82
2022-11-06T07:36:14.936Z,12.29
2022-11-06T07:41:40.122Z,10.57
2022-11-06T07:47:09.496Z,11.19
2022-11-06T07:52:35.611Z,12.77
2022-11-06T07:58:00.778Z,10.98
2022-11-06T08:03:27.468Z,11.57
2022-11-06T08:08:57.692Z,13.08
2022-11-06T08:14:23.438Z,11.34
2022-11-06T08:19:45.856Z,11.44
2022-11-06T08:25:10.843Z,13.38
2022-11-06T08:30:39.579Z,12.14
2022-11-06T08:36:07.638Z,10.66
2022-11-06T08:41:30.030Z,11.07
2022-11-06T08:46:57.182Z,13.75
2022-11-06T08:52:26.739Z,13.13
2022-11-06T08:57:51.354Z,11.31
2022-11-06T09:03:18.260Z,11.59
2022-11-06T09:08:40.936Z,14.13
2022-11-06T09:14:07.160Z,13.47
2022-11-06T09:19:29.752Z,12.14
2022-11-06T09:25:04.930Z,11.46
2022-11-06T09:30:30.573Z,12.48
2022-11-06T09:36:55.805Z,14.78
2022-11-06T09:44:08.201Z,14.20
2022-11-06T09:50:51.536Z,12.67
2022-11-06T09:57:38.265Z,12.14
2022-11-06T10:04:33.635Z,13.42
2022-11-06T10:10:40.728Z,14.51
2022-11-06T10:16:51.923Z,13.35
2022-11-06T10:22:39.804Z,12.87
2022-11-06T10:28:14.491Z,12.49
2022-11-06T10:33:53.967Z,12.37
2022-11-06T10:39:29.618Z,15.26
2022-11-06T10:45:11.740Z,15.02
2022-11-06T11:21:45.005Z,14.63
2022-11-06T11:39:39.145Z,12.99
2022-11-06T11:52:00.577Z,14.74
2022-11-06T11:58:46.211Z,14.52
2022-11-06T12:04:52.540Z,13.43
2022-11-06T12:10:35.726Z,12.98
2022-11-06T12:16:12.185Z,12.71
2022-11-06T12:21:42.661Z,12.52
2022-11-06T12:27:21.869Z,12.32
2022-11-06T12:33:16.817Z,12.12
2022-11-06T12:38:50.168Z,11.90
2022-11-06T12:44:16.265Z,11.71
2022-11-06T12:49:51.015Z,11.60
2022-11-06T12:55:29.766Z,11.62
2022-11-06T13:01:24.661Z,11.77
2022-11-06T13:07:21.270Z,11.98
2022-11-06T13:13:15.128Z,13.57
2022-11-06T13:19:05.882Z,14.74
2022-11-06T13:24:41.262Z,13.98
2022-11-06T13:30:24.575Z,13.72
2022-11-06T13:35:49.930Z,13.57
2022-11-06T13:41:36.888Z,13.74
2022-11-06T13:47:13.320Z,14.17
2022-11-06T13:52:48.139Z,14.60
2022-11-06T13:58:20.055Z,15.02
2022-11-06T14:03:58.379Z,15.33
2022-11-06T14:09:31.083Z,15.56
2022-11-06T14:15:15.289Z,15.61
2022-11-06T14:20:41.024Z,15.52
2022-11-06T14:26:57.143Z,15.24
2022-11-06T14:32:19.143Z,14.81
2022-11-06T14:37:44.218Z,14.53
2022-11-06T14:43:23.092Z,14.24
2022-11-06T14:48:50.925Z,14.00
2022-11-06T14:54:24.955Z,13.76
2022-11-06T14:59:52.037Z,13.49
2022-11-06T15:06:02.366Z,13.13
2022-11-06T15:11:30.466Z,12.73
2022-11-06T15:17:13.148Z,12.40
2022-11-06T15:22:47.856Z,12.08
2022-11-06T15:28:22.216Z,13.52
2022-11-06T15:34:44.887Z,15.45
2022-11-06T15:40:35.609Z,13.70
2022-11-06T15:46:23.194Z,12.82
2022-11-06T15:52:56.183Z,13.67
2022-11-06T15:59:07.302Z,15.90
2022-11-06T16:05:00.766Z,14.21
2022-11-06T16:10:58.473Z,13.02
2022-11-06T16:23:36.099Z,13.11
2022-11-06T16:35:42.467Z,12.31
2022-11-06T16:47:50.590Z,14.00
2022-11-06T17:06:19.818Z,11.88
2022-11-06T17:12:42.014Z,14.35
2022-11-06T17:18:04.292Z,12.88
2022-11-06T17:23:30.824Z,11.32
2022-11-06T17:28:52.685Z,11.31
2022-11-06T17:35:16.780Z,13.25
2022-11-06T17:41:02.400Z,12.78
2022-11-06T17:46:29.293Z,11.18
2022-11-06T17:51:58.584Z,11.03
2022-11-06T17:57:24.197Z,12.79
2022-11-06T18:03:02.455Z,12.94
2022-11-06T18:08:24.929Z,11.30
2022-11-06T18:13:49.688Z,11.37
2022-11-06T18:19:15.397Z,13.61
2022-11-06T18:24:38.623Z,13.13
2022-11-06T18:30:01.498Z,11.37
2022-11-06T18:35:24.254Z,11.74
2022-11-06T18:40:51.447Z,13.25
2022-11-06T18:46:18.639Z,11.47
2022-11-06T18:52:57.369Z,11.70
2022-11-06T18:58:40.731Z,13.84
2022-11-06T19:04:04.755Z,11.84
2022-11-06T19:09:39.023Z,11.99
2022-11-06T19:15:11.699Z,13.64
2022-11-06T19:20:35.326Z,11.77
2022-11-06T19:26:10.672Z,11.96
2022-11-06T19:31:40.084Z,13.90
2022-11-06T19:37:05.702Z,11.95
2022-11-06T19:42:50.922Z,12.03
2022-11-06T19:48:22.231Z,14.14
2022-11-06T20:12:49.562Z,14.31
2022-11-06T20:51:42.953Z,12.27
2022-11-06T20:57:16.581Z,12.80
2022-11-06T21:03:03.219Z,14.99
2022-11-06T21:08:53.459Z,13.40
2022-11-06T21:15:00.912Z,12.02
2022-11-06T21:20:34.798Z,12.91
2022-11-06T21:26:25.067Z,15.02
2022-11-06T21:31:57.262Z,13.83
2022-11-06T21:37:48.697Z,12.42
2022-11-06T21:43:15.652Z,12.96
2022-11-06T21:48:58.165Z,15.04
2022-11-06T21:54:46.114Z,14.23
2022-11-06T22:00:31.472Z,12.64
2022-11-06T22:06:20.951Z,13.10
2022-11-06T22:12:28.352Z,15.29
2022-11-06T22:18:25.494Z,14.16
2022-11-06T22:24:19.119Z,12.66
2022-11-06T22:30:13.457Z,13.48
2022-11-06T22:36:16.779Z,14.56
2022-11-06T22:42:29.737Z,12.81
2022-11-06T22:48:05.673Z,13.66
2022-11-06T22:54:10.924Z,14.86
2022-11-06T22:59:41.853Z,13.12
2022-11-06T23:05:25.031Z,13.52
2022-11-06T23:10:51.988Z,15.44
2022-11-06T23:17:12.744Z,13.92
2022-11-06T23:22:41.425Z,12.70
2022-11-06T23:28:35.796Z,13.34
2022-11-06T23:34:01.103Z,15.38
2022-11-06T23:39:33.945Z,13.99
2022-11-06T23:45:23.831Z,12.73
2022-11-06T23:51:34.482Z,13.51
2022-11-06T23:57:59.690Z,15.50
